createdAt,value
2023-05-09T00:00:32.780Z,16.20
2023-05-09T00:02:59.234Z,16.21
2023-05-09T00:05:25.809Z,16.22
2023-05-09T00:07:52.330Z,16.23
2023-05-09T00:10:18.780Z,16.22
2023-05-09T00:12:45.528Z,16.21
2023-05-09T00:15:12.231Z,16.21
2023-05-09T00:17:39.859Z,16.19
2023-05-09T00:20:12.157Z,16.19
2023-05-09T00:22:43.080Z,16.20
2023-05-09T00:25:10.989Z,16.20
2023-05-09T00:27:37.777Z,16.20
2023-05-09T00:30:05.821Z,16.18
2023-05-09T00:32:33.616Z,16.17
2023-05-09T00:35:00.225Z,16.16
2023-05-09T00:37:26.788Z,16.14
2023-05-09T00:39:53.310Z,16.14
2023-05-09T00:42:19.741Z,16.14
2023-05-09T00:44:46.531Z,16.12
2023-05-09T00:47:12.991Z,16.11
2023-05-09T00:49:39.512Z,16.10
2023-05-09T00:52:06.334Z,16.11
2023-05-09T00:54:32.845Z,16.10
2023-05-09T00:56:59.430Z,16.13
2023-05-09T00:59:26.925Z,16.11
2023-05-09T01:01:53.534Z,16.10
2023-05-09T01:04:20.148Z,16.07
2023-05-09T01:07:08.314Z,16.05
2023-05-09T01:09:41.225Z,16.02
2023-05-09T01:12:21.398Z,16.02
2023-05-09T01:15:08.280Z,16.03
2023-05-09T01:17:59.850Z,16.03
2023-05-09T01:20:33.709Z,16.05
2023-05-09T01:23:26.735Z,16.06
2023-05-09T01:26:19.018Z,16.06
2023-05-09T01:28:59.722Z,16.05
2023-05-09T01:31:26.995Z,16.01
2023-05-09T01:33:58.049Z,15.99
2023-05-09T01:36:30.099Z,15.95
2023-05-09T01:38:58.110Z,15.95
2023-05-09T01:41:26.224Z,15.96
2023-05-09T01:43:56.015Z,15.98
2023-05-09T01:46:23.768Z,15.94
2023-05-09T01:48:50.999Z,15.95
2023-05-09T01:51:20.483Z,15.93
2023-05-09T01:53:48.670Z,15.92
2023-05-09T01:56:16.415Z,15.93
2023-05-09T01:58:45.311Z,15.92
2023-05-09T02:01:13.526Z,15.92
2023-05-09T02:03:40.636Z,15.91
2023-05-09T02:06:08.250Z,15.89
2023-05-09T02:08:35.553Z,15.90
2023-05-09T02:11:02.080Z,15.91
2023-05-09T02:13:29.441Z,15.93
2023-05-09T02:15:57.013Z,15.93
2023-05-09T02:18:23.533Z,15.92
2023-05-09T02:20:50.043Z,15.93
2023-05-09T02:23:17.746Z,15.91
2023-05-09T02:25:44.878Z,15.92
2023-05-09T02:28:12.574Z,15.91
2023-05-09T02:30:44.224Z,15.91
2023-05-09T02:33:12.393Z,15.90
2023-05-09T02:35:42.744Z,15.92
2023-05-09T02:38:09.658Z,15.90
2023-05-09T02:40:36.407Z,15.90
2023-05-09T02:43:02.936Z,15.89
2023-05-09T02:45:29.520Z,15.88
2023-05-09T02:47:56.097Z,15.87
2023-05-09T02:50:22.703Z,15.84
2023-05-09T02:52:49.153Z,15.81
2023-05-09T02:55:16.010Z,15.80
2023-05-09T02:57:43.861Z,15.78
2023-05-09T03:00:11.269Z,15.78
2023-05-09T03:02:38.890Z,15.76
2023-05-09T03:05:09.264Z,15.78
2023-05-09T03:07:36.299Z,15.78
2023-05-09T03:10:02.942Z,15.76
2023-05-09T03:12:31.123Z,15.73
2023-05-09T03:14:57.618Z,15.73
2023-05-09T03:17:24.488Z,15.72
2023-05-09T03:19:51.068Z,15.71
2023-05-09T03:22:17.531Z,15.70
2023-05-09T03:24:52.238Z,15.66
2023-05-09T03:27:19.221Z,15.62
2023-05-09T03:29:46.165Z,15.57
2023-05-09T03:32:15.304Z,15.57
2023-05-09T03:34:42.043Z,15.56
2023-05-09T03:37:08.541Z,15.54
2023-05-09T03:39:38.813Z,15.48
2023-05-09T03:42:05.509Z,15.49
2023-05-09T03:44:31.967Z,15.50
2023-05-09T03:46:59.894Z,15.48
2023-05-09T03:49:31.092Z,15.49
2023-05-09T03:51:57.630Z,15.47
2023-05-09T03:54:26.111Z,15.48
2023-05-09T03:56:52.828Z,15.48
2023-05-09T03:59:19.254Z,15.47
2023-05-09T04:01:45.835Z,15.45
2023-05-09T04:04:12.674Z,15.42
2023-05-09T04:06:39.227Z,15.42
2023-05-09T04:09:08.157Z,15.44
2023-05-09T04:11:34.643Z,15.44
2023-05-09T04:14:01.636Z,15.41
2023-05-09T04:16:31.844Z,15.36
2023-05-09T04:18:58.770Z,15.36
2023-05-09T04:21:25.685Z,15.36
2023-05-09T04:23:55.609Z,15.38
2023-05-09T04:26:31.130Z,15.39
2023-05-09T04:28:58.894Z,15.40
2023-05-09T04:31:26.670Z,15.38
2023-05-09T04:33:53.569Z,15.38
2023-05-09T04:36:21.110Z,15.38
2023-05-09T04:38:47.907Z,15.38
2023-05-09T04:41:18.319Z,15.37
2023-05-09T04:43:44.885Z,15.39
2023-05-09T04:46:11.708Z,15.38
2023-05-09T04:48:38.203Z,15.33
2023-05-09T04:51:04.595Z,15.33
2023-05-09T04:53:31.922Z,15.34
2023-05-09T04:55:59.514Z,15.31
2023-05-09T04:58:26.600Z,15.29
2023-05-09T05:00:54.056Z,15.28
2023-05-09T05:03:20.489Z,15.29
2023-05-09T05:05:47.137Z,15.30
2023-05-09T05:08:13.785Z,15.30
2023-05-09T05:10:41.629Z,15.32
2023-05-09T05:13:11.027Z,15.32
2023-05-09T05:15:42.095Z,15.31
2023-05-09T05:18:09.689Z,15.32
2023-05-09T05:20:36.295Z,15.33
2023-05-09T05:23:02.912Z,15.33
2023-05-09T05:25:29.348Z,15.35
2023-05-09T05:27:57.153Z,15.34
2023-05-09T05:30:23.614Z,15.35
2023-05-09T05:32:50.819Z,15.34
2023-05-09T05:35:23.108Z,15.31
2023-05-09T05:37:50.699Z,15.33
2023-05-09T05:40:17.632Z,15.37
2023-05-09T05:42:47.231Z,15.36
2023-05-09T05:45:14.253Z,15.35
2023-05-09T05:47:45.522Z,15.33
2023-05-09T05:50:12.743Z,15.31
2023-05-09T05:52:40.445Z,15.34
2023-05-09T05:55:09.476Z,15.36
2023-05-09T05:57:37.711Z,15.39
2023-05-09T06:00:12.194Z,15.39
2023-05-09T06:02:47.623Z,15.37
2023-05-09T06:05:21.639Z,15.28
2023-05-09T06:07:48.142Z,15.27
2023-05-09T06:10:16.010Z,15.23
2023-05-09T06:12:44.365Z,15.19
2023-05-09T06:15:11.168Z,15.18
2023-05-09T06:17:41.258Z,15.17
2023-05-09T06:20:08.056Z,15.21
2023-05-09T06:22:34.495Z,15.23
2023-05-09T06:25:00.941Z,15.29
2023-05-09T06:27:27.396Z,15.32
2023-05-09T06:29:53.881Z,15.33
2023-05-09T06:32:21.129Z,15.31
2023-05-09T06:34:48.212Z,15.30
2023-05-09T06:37:14.597Z,15.26
2023-05-09T06:39:41.016Z,15.23
2023-05-09T06:42:07.526Z,15.22
2023-05-09T06:44:37.859Z,15.22
2023-05-09T06:47:04.430Z,15.19
2023-05-09T06:49:30.890Z,15.17
2023-05-09T06:51:57.365Z,15.18
2023-05-09T06:54:23.784Z,15.18
2023-05-09T06:56:50.267Z,15.16
2023-05-09T06:59:16.840Z,15.16
2023-05-09T07:01:43.314Z,15.09
2023-05-09T07:04:09.782Z,15.05
2023-05-09T07:06:36.259Z,15.06
2023-05-09T07:09:03.906Z,15.05
2023-05-09T07:11:36.898Z,15.07
2023-05-09T07:14:04.149Z,15.06
2023-05-09T07:16:30.690Z,15.05
2023-05-09T07:18:57.108Z,15.04
2023-05-09T07:21:23.560Z,15.05
2023-05-09T07:23:50.032Z,15.05
2023-05-09T07:26:16.415Z,15.08
2023-05-09T07:28:42.874Z,15.09
2023-05-09T07:31:09.410Z,15.12
2023-05-09T07:33:36.072Z,15.12
2023-05-09T07:36:02.852Z,15.13
2023-05-09T07:38:29.325Z,15.13
2023-05-09T07:40:55.904Z,15.15
2023-05-09T07:43:22.296Z,15.15
2023-05-09T07:45:48.768Z,15.14
2023-05-09T07:48:15.205Z,15.15
2023-05-09T07:50:41.668Z,15.14
2023-05-09T07:53:08.140Z,15.10
2023-05-09T07:55:34.577Z,15.08
2023-05-09T07:58:01.055Z,15.11
2023-05-09T08:00:27.795Z,15.13
2023-05-09T08:02:54.361Z,15.16
2023-05-09T08:05:21.019Z,15.18
2023-05-09T08:07:47.503Z,15.16
2023-05-09T08:10:14.022Z,15.17
2023-05-09T08:12:40.595Z,15.16
2023-05-09T08:15:07.456Z,15.14
2023-05-09T08:17:34.021Z,15.13
2023-05-09T08:20:00.646Z,15.12
2023-05-09T08:22:27.139Z,15.11
2023-05-09T08:24:53.593Z,15.08
2023-05-09T08:27:20.032Z,15.06
2023-05-09T08:29:46.511Z,15.04
2023-05-09T08:32:13.015Z,15.04
2023-05-09T08:34:39.582Z,15.03
2023-05-09T08:37:06.027Z,15.05
2023-05-09T08:39:34.731Z,15.07
2023-05-09T08:42:02.281Z,15.11
2023-05-09T08:44:30.469Z,15.11
2023-05-09T08:46:59.817Z,15.05
2023-05-09T08:49:26.744Z,15.06
2023-05-09T08:51:54.201Z,15.05
2023-05-09T08:54:24.624Z,15.08
2023-05-09T08:56:51.223Z,15.06
2023-05-09T08:59:18.914Z,15.08
2023-05-09T09:01:45.976Z,15.07
2023-05-09T09:04:12.471Z,15.06
2023-05-09T09:06:40.560Z,15.08
2023-05-09T09:09:09.053Z,15.09
2023-05-09T09:11:36.860Z,15.09
2023-05-09T09:14:13.335Z,15.09
2023-05-09T09:16:41.574Z,15.08
2023-05-09T09:19:12.654Z,15.07
2023-05-09T09:21:43.326Z,15.07
2023-05-09T09:24:14.529Z,15.06
2023-05-09T09:26:48.401Z,15.05
2023-05-09T09:29:15.829Z,15.04
2023-05-09T09:31:46.680Z,15.06
2023-05-09T09:34:21.222Z,15.09
2023-05-09T09:36:48.493Z,15.12
2023-05-09T09:39:15.606Z,15.12
2023-05-09T09:41:42.378Z,15.07
2023-05-09T09:44:13.966Z,15.10
2023-05-09T09:46:51.554Z,15.13
2023-05-09T09:49:20.820Z,15.13
2023-05-09T09:51:52.416Z,15.12
2023-05-09T09:54:19.329Z,15.07
2023-05-09T09:56:47.545Z,15.06
2023-05-09T09:59:16.605Z,15.08
2023-05-09T10:01:58.764Z,15.12
2023-05-09T10:04:26.611Z,15.13
2023-05-09T10:06:55.077Z,15.13
2023-05-09T10:09:23.760Z,15.16
2023-05-09T10:11:52.200Z,15.17
2023-05-09T10:14:21.186Z,15.18
2023-05-09T10:16:49.261Z,15.21
2023-05-09T10:19:19.040Z,15.22
2023-05-09T10:21:52.152Z,15.21
2023-05-09T10:24:22.811Z,15.20
2023-05-09T10:26:53.073Z,15.19
2023-05-09T10:29:23.887Z,15.21
2023-05-09T10:31:55.044Z,15.18
2023-05-09T10:34:24.956Z,15.19
2023-05-09T10:36:51.659Z,15.25
2023-05-09T10:39:18.737Z,15.39
2023-05-09T10:41:49.700Z,15.50
2023-05-09T10:44:16.542Z,15.54
2023-05-09T10:46:43.160Z,15.56
2023-05-09T10:49:10.018Z,15.48
2023-05-09T10:51:36.436Z,15.43
2023-05-09T10:54:14.042Z,15.38
2023-05-09T10:56:40.408Z,15.35
2023-05-09T10:59:06.834Z,15.34
2023-05-09T11:01:39.323Z,15.38
2023-05-09T11:04:11.452Z,15.38
2023-05-09T11:06:55.132Z,15.42
2023-05-09T11:09:24.956Z,15.43
2023-05-09T11:11:52.968Z,15.34
2023-05-09T11:14:37.967Z,15.36
2023-05-09T11:17:06.557Z,15.34
2023-05-09T11:19:59.151Z,15.32
2023-05-09T11:22:28.223Z,15.32
2023-05-09T11:25:02.435Z,15.32
2023-05-09T11:27:29.543Z,15.31
2023-05-09T11:29:58.981Z,15.30
2023-05-09T11:32:32.190Z,15.30
2023-05-09T11:35:17.005Z,15.32
2023-05-09T11:37:52.403Z,15.28
2023-05-09T11:40:20.808Z,15.30
2023-05-09T11:42:56.250Z,15.33
2023-05-09T11:45:33.890Z,15.36
2023-05-09T11:48:04.015Z,15.34
2023-05-09T11:50:30.746Z,15.32
2023-05-09T11:52:57.204Z,15.32
2023-05-09T11:55:25.199Z,15.35
2023-05-09T11:57:53.353Z,15.39
2023-05-09T12:00:22.124Z,15.41
2023-05-09T12:02:49.211Z,15.43
2023-05-09T12:05:18.473Z,15.42
2023-05-09T12:07:45.706Z,15.38
2023-05-09T12:10:14.435Z,15.40
2023-05-09T12:12:52.242Z,15.43
2023-05-09T12:15:19.731Z,15.43
2023-05-09T12:17:48.833Z,15.45
2023-05-09T12:20:16.933Z,15.44
2023-05-09T12:22:43.927Z,15.42
2023-05-09T12:25:12.011Z,15.42
2023-05-09T12:27:40.501Z,15.42
2023-05-09T12:30:10.054Z,15.43
2023-05-09T12:32:39.222Z,15.43
2023-05-09T12:35:10.598Z,15.45
2023-05-09T12:37:37.809Z,15.46
2023-05-09T12:40:12.988Z,15.47
2023-05-09T12:42:43.482Z,15.44
2023-05-09T12:45:10.852Z,15.42
2023-05-09T12:47:38.942Z,15.44
2023-05-09T12:50:06.732Z,15.47
2023-05-09T12:52:50.176Z,15.49
2023-05-09T12:55:25.176Z,15.48
2023-05-09T12:57:59.863Z,15.43
2023-05-09T13:00:26.261Z,15.48
2023-05-09T13:02:52.969Z,15.50
2023-05-09T13:05:21.161Z,15.42
2023-05-09T13:07:50.161Z,15.41
2023-05-09T13:10:34.480Z,15.37
2023-05-09T13:13:00.965Z,15.30
2023-05-09T13:15:27.685Z,15.31
2023-05-09T13:17:54.205Z,15.31
2023-05-09T13:20:21.151Z,15.36
2023-05-09T13:22:47.625Z,15.40
2023-05-09T13:25:14.343Z,15.44
2023-05-09T13:27:40.848Z,15.48
2023-05-09T13:30:08.417Z,15.41
2023-05-09T13:32:36.549Z,15.41
2023-05-09T13:35:04.540Z,15.41
2023-05-09T13:37:30.968Z,15.42
2023-05-09T13:39:57.367Z,15.42
2023-05-09T13:42:23.908Z,15.37
2023-05-09T13:44:50.549Z,15.33
2023-05-09T13:47:16.963Z,15.28
2023-05-09T13:49:43.346Z,15.32
2023-05-09T13:52:10.057Z,15.34
2023-05-09T13:54:36.925Z,15.38
2023-05-09T13:57:07.799Z,15.37
2023-05-09T13:59:34.318Z,15.32
2023-05-09T14:02:01.299Z,15.34
2023-05-09T14:04:28.518Z,15.33
2023-05-09T14:06:55.715Z,15.33
2023-05-09T14:09:22.942Z,15.29
2023-05-09T14:11:51.584Z,15.32
2023-05-09T14:14:22.722Z,15.37
2023-05-09T14:16:49.404Z,15.40
2023-05-09T14:19:17.052Z,15.39
2023-05-09T14:21:44.468Z,15.37
2023-05-09T14:24:14.343Z,15.41
2023-05-09T14:26:42.188Z,15.42
2023-05-09T14:29:08.693Z,15.45
2023-05-09T14:31:36.850Z,15.45
2023-05-09T14:34:05.028Z,15.47
2023-05-09T14:36:32.409Z,15.47
2023-05-09T14:38:58.902Z,15.48
2023-05-09T14:41:25.387Z,15.54
2023-05-09T14:43:52.360Z,15.55
2023-05-09T14:46:18.879Z,15.55
2023-05-09T14:48:45.335Z,15.54
2023-05-09T14:51:11.895Z,15.54
2023-05-09T14:53:41.919Z,15.56
2023-05-09T14:56:11.113Z,15.55
2023-05-09T14:58:37.714Z,15.55
2023-05-09T15:01:04.366Z,15.55
2023-05-09T15:03:31.079Z,15.58
2023-05-09T15:05:58.654Z,15.59
2023-05-09T15:08:25.513Z,15.56
2023-05-09T15:10:51.964Z,15.56
2023-05-09T15:13:18.453Z,15.56
2023-05-09T15:15:44.902Z,15.54
2023-05-09T15:18:13.144Z,15.55
2023-05-09T15:20:39.739Z,15.49
2023-05-09T15:23:07.467Z,15.44
2023-05-09T15:25:34.419Z,15.45
2023-05-09T15:28:01.171Z,15.45
2023-05-09T15:30:27.670Z,15.50
2023-05-09T15:32:54.109Z,15.50
2023-05-09T15:35:20.685Z,15.45
2023-05-09T15:37:47.151Z,15.37
2023-05-09T15:40:13.912Z,15.42
2023-05-09T15:42:40.608Z,15.46
2023-05-09T15:45:07.825Z,15.44
2023-05-09T15:47:34.379Z,15.44
2023-05-09T15:50:00.821Z,15.49
2023-05-09T15:52:27.806Z,15.53
2023-05-09T15:54:55.337Z,15.52
2023-05-09T15:57:21.991Z,15.48
2023-05-09T15:59:48.444Z,15.50
2023-05-09T16:02:15.124Z,15.50
2023-05-09T16:04:42.464Z,15.50
2023-05-09T16:07:08.967Z,15.52
2023-05-09T16:09:35.419Z,15.54
2023-05-09T16:12:01.874Z,15.54
2023-05-09T16:14:28.383Z,15.52
2023-05-09T16:16:54.873Z,15.52
2023-05-09T16:19:21.692Z,15.45
2023-05-09T16:21:48.442Z,15.43
2023-05-09T16:24:14.986Z,15.43
2023-05-09T16:26:41.476Z,15.45
2023-05-09T16:29:07.994Z,15.44
2023-05-09T16:31:35.666Z,15.43
2023-05-09T16:34:02.763Z,15.42
2023-05-09T16:36:29.981Z,15.38
2023-05-09T16:38:56.437Z,15.37
2023-05-09T16:41:23.043Z,15.39
2023-05-09T16:43:49.497Z,15.40
2023-05-09T16:46:16.238Z,15.41
2023-05-09T16:48:42.764Z,15.37
2023-05-09T16:51:10.060Z,15.37
2023-05-09T16:53:36.589Z,15.36
2023-05-09T16:56:07.793Z,15.37
2023-05-09T16:58:35.476Z,15.33
2023-05-09T17:01:03.739Z,15.31
2023-05-09T17:03:30.727Z,15.30
2023-05-09T17:05:57.117Z,15.31
2023-05-09T17:08:23.496Z,15.29
2023-05-09T17:10:52.945Z,15.29
2023-05-09T17:13:19.448Z,15.26
2023-05-09T17:15:46.102Z,15.26
2023-05-09T17:18:17.016Z,15.26
2023-05-09T17:20:46.130Z,15.25
2023-05-09T17:23:12.573Z,15.19
2023-05-09T17:25:38.940Z,15.16
2023-05-09T17:28:05.360Z,15.14
2023-05-09T17:30:33.167Z,15.16
2023-05-09T17:32:59.865Z,15.15
2023-05-09T17:35:26.311Z,15.15
2023-05-09T17:37:52.784Z,15.10
2023-05-09T17:40:19.416Z,15.06
2023-05-09T17:42:45.796Z,15.02
2023-05-09T17:45:12.362Z,15.01
2023-05-09T17:47:39.493Z,15.01
2023-05-09T17:50:14.422Z,15.04
2023-05-09T17:52:41.016Z,15.06
2023-05-09T17:55:08.237Z,15.03
2023-05-09T17:57:34.668Z,15.03
2023-05-09T18:00:01.080Z,15.02
2023-05-09T18:02:29.396Z,15.01
2023-05-09T18:04:55.882Z,14.98
2023-05-09T18:07:22.742Z,14.96
2023-05-09T18:09:49.183Z,14.99
2023-05-09T18:12:15.719Z,14.99
2023-05-09T18:14:42.196Z,14.97
2023-05-09T18:17:08.670Z,14.94
2023-05-09T18:19:35.785Z,14.93
2023-05-09T18:22:02.347Z,14.92
2023-05-09T18:24:28.746Z,14.92
2023-05-09T18:26:55.167Z,14.89
2023-05-09T18:29:21.610Z,14.84
2023-05-09T18:31:48.006Z,14.84
2023-05-09T18:34:16.463Z,14.84
2023-05-09T18:36:42.994Z,14.82
2023-05-09T18:39:11.653Z,14.83
2023-05-09T18:41:38.043Z,14.83
2023-05-09T18:44:04.816Z,14.83
2023-05-09T18:46:33.443Z,14.83
2023-05-09T18:49:00.332Z,14.82
2023-05-09T18:51:27.199Z,14.82
2023-05-09T18:53:54.254Z,14.81
2023-05-09T18:56:22.055Z,14.79
2023-05-09T18:58:50.224Z,14.77
2023-05-09T19:01:17.294Z,14.78
2023-05-09T19:03:46.011Z,14.75
2023-05-09T19:06:13.971Z,14.73
2023-05-09T19:08:41.932Z,14.72
2023-05-09T19:11:08.692Z,14.72
2023-05-09T19:13:38.392Z,14.72
2023-05-09T19:16:06.787Z,14.68
2023-05-09T19:18:33.832Z,14.67
2023-05-09T19:21:01.425Z,14.64
2023-05-09T19:23:27.823Z,14.61
2023-05-09T19:25:54.459Z,14.59
2023-05-09T19:28:22.778Z,14.56
2023-05-09T19:30:50.445Z,14.48
2023-05-09T19:33:17.214Z,14.45
2023-05-09T19:35:44.279Z,14.46
2023-05-09T19:38:11.900Z,14.45
2023-05-09T19:40:39.295Z,14.44
2023-05-09T19:43:05.691Z,14.44
2023-05-09T19:45:32.178Z,14.43
2023-05-09T19:47:58.907Z,14.42
2023-05-09T19:50:25.552Z,14.38
2023-05-09T19:52:51.915Z,14.28
2023-05-09T19:55:18.385Z,14.28
2023-05-09T19:57:47.469Z,14.30
2023-05-09T20:00:14.573Z,14.26
2023-05-09T20:02:41.330Z,14.29
2023-05-09T20:05:10.525Z,14.26
2023-05-09T20:07:37.022Z,14.22
2023-05-09T20:10:03.536Z,14.24
2023-05-09T20:12:30.535Z,14.26
2023-05-09T20:14:57.053Z,14.25
2023-05-09T20:17:23.511Z,14.25
2023-05-09T20:19:53.173Z,14.26
2023-05-09T20:22:19.696Z,14.25
2023-05-09T20:24:47.500Z,14.24
2023-05-09T20:27:13.920Z,14.22
2023-05-09T20:29:40.364Z,14.22
2023-05-09T20:32:06.791Z,14.20
2023-05-09T20:34:33.182Z,14.22
2023-05-09T20:36:59.590Z,14.15
2023-05-09T20:39:26.827Z,14.17
2023-05-09T20:41:55.471Z,14.19
2023-05-09T20:44:21.948Z,14.20
2023-05-09T20:46:48.432Z,14.21
2023-05-09T20:49:15.349Z,14.18
2023-05-09T20:51:41.977Z,14.16
2023-05-09T20:54:08.453Z,14.17
2023-05-09T20:56:35.567Z,14.20
2023-05-09T20:59:03.943Z,14.21
2023-05-09T21:01:37.189Z,14.20
2023-05-09T21:04:08.436Z,14.21
2023-05-09T21:06:36.112Z,14.21
2023-05-09T21:09:03.792Z,14.22
2023-05-09T21:11:30.247Z,14.18
2023-05-09T21:13:56.836Z,14.17
2023-05-09T21:16:23.360Z,14.15
2023-05-09T21:18:49.772Z,14.15
2023-05-09T21:21:16.267Z,14.17
2023-05-09T21:23:42.645Z,14.18
2023-05-09T21:26:09.247Z,14.18
2023-05-09T21:28:35.632Z,14.18
2023-05-09T21:31:02.217Z,14.18
2023-05-09T21:33:29.455Z,14.17
2023-05-09T21:35:55.858Z,14.17
2023-05-09T21:38:22.413Z,14.18
2023-05-09T21:40:51.246Z,14.14
2023-05-09T21:43:18.268Z,14.14
2023-05-09T21:45:45.492Z,14.16
2023-05-09T21:48:12.212Z,14.14
2023-05-09T21:50:38.702Z,14.14
2023-05-09T21:53:05.130Z,14.14
2023-05-09T21:55:31.515Z,14.14
2023-05-09T21:57:57.968Z,14.13
2023-05-09T22:00:24.637Z,14.13
2023-05-09T22:02:51.244Z,14.13
2023-05-09T22:05:17.943Z,14.16
2023-05-09T22:07:44.406Z,14.14
2023-05-09T22:10:11.166Z,14.14
2023-05-09T22:12:38.047Z,14.12
2023-05-09T22:15:04.952Z,14.13
2023-05-09T22:17:31.382Z,14.11
2023-05-09T22:19:57.801Z,14.09
2023-05-09T22:22:24.364Z,14.09
2023-05-09T22:24:50.783Z,14.09
2023-05-09T22:27:17.272Z,14.10
2023-05-09T22:29:43.711Z,14.08
2023-05-09T22:32:10.163Z,14.09
2023-05-09T22:34:36.651Z,14.08
2023-05-09T22:37:03.396Z,14.09
2023-05-09T22:39:30.716Z,14.09
2023-05-09T22:41:57.155Z,14.06
2023-05-09T22:44:23.615Z,14.06
2023-05-09T22:46:50.050Z,14.05
2023-05-09T22:49:16.459Z,14.03
2023-05-09T22:51:42.858Z,14.02
2023-05-09T22:54:09.325Z,14.02
2023-05-09T22:56:36.280Z,14.02
2023-05-09T22:59:02.672Z,14.03
2023-05-09T23:01:29.239Z,14.02
2023-05-09T23:03:55.666Z,14.03
2023-05-09T23:06:22.063Z,14.03
2023-05-09T23:08:48.463Z,14.02
2023-05-09T23:11:14.900Z,14.01
2023-05-09T23:13:41.893Z,13.99
2023-05-09T23:16:08.330Z,13.96
2023-05-09T23:18:34.797Z,13.96
2023-05-09T23:21:01.238Z,13.95
2023-05-09T23:23:27.673Z,13.95
2023-05-09T23:25:54.370Z,13.96
2023-05-09T23:28:24.859Z,13.96
2023-05-09T23:30:52.132Z,13.95
2023-05-09T23:33:18.545Z,13.96
2023-05-09T23:35:45.061Z,13.96
2023-05-09T23:38:11.618Z,13.93
2023-05-09T23:40:38.500Z,13.94
2023-05-09T23:43:04.977Z,13.92
2023-05-09T23:45:31.939Z,13.92
2023-05-09T23:47:58.423Z,13.91
2023-05-09T23:50:24.864Z,13.89
2023-05-09T23:52:51.383Z,13.87
2023-05-09T23:55:18.007Z,13.85
2023-05-09T23:57:44.485Z,13.84
